sensor_id;sensor_type;location;lat;lon;timestamp;P1;durP1;ratioP1;P2;durP2;ratioP2
66669;SDS011;53568;52.164;4.472;2022-08-14T00:00:51;8.09;;;8.09;;
66669;SDS011;53568;52.164;4.472;2022-08-14T00:03:18;8.03;;;8.03;;
66669;SDS011;53568;52.164;4.472;2022-08-14T00:05:45;8.25;;;8.25;;
66669;SDS011;53568;52.164;4.472;2022-08-14T00:08:11;8.16;;;8.16;;
66669;SDS011;53568;52.164;4.472;2022-08-14T00:10:37;8.36;;;8.36;;
66669;SDS011;53568;52.164;4.472;2022-08-14T00:13:02;8.38;;;8.38;;
66669;SDS011;53568;52.164;4.472;2022-08-14T00:15:32;8.75;;;8.75;;
66669;SDS011;53568;52.164;4.472;2022-08-14T00:18:00;8.99;;;8.99;;
66669;SDS011;53568;52.164;4.472;2022-08-14T00:20:28;9.13;;;9.13;;
66669;SDS011;53568;52.164;4.472;2022-08-14T00:22:57;9.21;;;9.21;;
66669;SDS011;53568;52.164;4.472;2022-08-14T00:25:23;9.28;;;9.28;;
66669;SDS011;53568;52.164;4.472;2022-08-14T00:27:49;9.50;;;9.50;;
66669;SDS011;53568;52.164;4.472;2022-08-14T00:30:14;9.52;;;9.52;;
66669;SDS011;53568;52.164;4.472;2022-08-14T00:32:41;9.27;;;9.27;;
66669;SDS011;53568;52.164;4.472;2022-08-14T00:35:07;9.76;;;9.76;;
66669;SDS011;53568;52.164;4.472;2022-08-14T00:37:34;9.88;;;9.88;;
66669;SDS011;53568;52.164;4.472;2022-08-14T00:40:03;9.00;;;9.00;;
66669;SDS011;53568;52.164;4.472;2022-08-14T00:42:29;8.97;;;8.97;;
66669;SDS011;53568;52.164;4.472;2022-08-14T00:44:55;9.50;;;9.50;;
66669;SDS011;53568;52.164;4.472;2022-08-14T00:47:21;9.70;;;9.70;;
66669;SDS011;53568;52.164;4.472;2022-08-14T00:49:51;9.30;;;9.30;;
66669;SDS011;53568;52.164;4.472;2022-08-14T00:52:20;8.79;;;8.79;;
66669;SDS011;53568;52.164;4.472;2022-08-14T00:54:47;9.12;;;9.12;;
66669;SDS011;53568;52.164;4.472;2022-08-14T00:57:18;9.10;;;9.10;;
66669;SDS011;53568;52.164;4.472;2022-08-14T00:59:45;9.14;;;9.14;;
66669;SDS011;53568;52.164;4.472;2022-08-14T01:02:10;9.07;;;9.07;;
66669;SDS011;53568;52.164;4.472;2022-08-14T01:04:37;9.24;;;9.24;;
66669;SDS011;53568;52.164;4.472;2022-08-14T01:07:04;9.49;;;9.49;;
66669;SDS011;53568;52.164;4.472;2022-08-14T01:09:31;9.30;;;9.30;;
66669;SDS011;53568;52.164;4.472;2022-08-14T01:11:59;9.33;;;9.33;;
66669;SDS011;53568;52.164;4.472;2022-08-14T01:14:27;9.63;;;9.63;;
66669;SDS011;53568;52.164;4.472;2022-08-14T01:16:52;10.01;;;10.01;;
66669;SDS011;53568;52.164;4.472;2022-08-14T01:19:18;10.03;;;10.03;;
66669;SDS011;53568;52.164;4.472;2022-08-14T01:22:03;10.38;;;10.38;;
66669;SDS011;53568;52.164;4.472;2022-08-14T01:24:32;9.81;;;9.81;;
66669;SDS011;53568;52.164;4.472;2022-08-14T01:26:58;9.90;;;9.90;;
66669;SDS011;53568;52.164;4.472;2022-08-14T01:29:24;10.26;;;10.26;;
66669;SDS011;53568;52.164;4.472;2022-08-14T01:31:51;10.01;;;10.01;;
66669;SDS011;53568;52.164;4.472;2022-08-14T01:34:17;9.97;;;9.97;;
66669;SDS011;53568;52.164;4.472;2022-08-14T01:36:44;10.74;;;10.74;;
66669;SDS011;53568;52.164;4.472;2022-08-14T01:39:12;10.40;;;10.40;;
66669;SDS011;53568;52.164;4.472;2022-08-14T01:41:41;10.51;;;10.51;;
66669;SDS011;53568;52.164;4.472;2022-08-14T01:44:12;10.65;;;10.65;;
66669;SDS011;53568;52.164;4.472;2022-08-14T01:46:41;10.72;;;10.72;;
66669;SDS011;53568;52.164;4.472;2022-08-14T01:49:09;11.54;;;11.54;;
66669;SDS011;53568;52.164;4.472;2022-08-14T01:51:39;11.35;;;11.35;;
66669;SDS011;53568;52.164;4.472;2022-08-14T01:54:10;10.49;;;10.49;;
66669;SDS011;53568;52.164;4.472;2022-08-14T01:56:38;11.08;;;11.08;;
66669;SDS011;53568;52.164;4.472;2022-08-14T02:01:40;10.95;;;10.95;;
66669;SDS011;53568;52.164;4.472;2022-08-14T02:04:07;10.99;;;10.99;;
66669;SDS011;53568;52.164;4.472;2022-08-14T02:06:34;10.92;;;10.92;;
66669;SDS011;53568;52.164;4.472;2022-08-14T02:09:04;10.87;;;10.87;;
66669;SDS011;53568;52.164;4.472;2022-08-14T02:11:31;11.04;;;11.04;;
66669;SDS011;53568;52.164;4.472;2022-08-14T02:14:01;10.78;;;10.78;;
66669;SDS011;53568;52.164;4.472;2022-08-14T02:16:30;10.97;;;10.97;;
66669;SDS011;53568;52.164;4.472;2022-08-14T02:19:02;10.57;;;10.57;;
66669;SDS011;53568;52.164;4.472;2022-08-14T02:21:30;11.21;;;11.21;;
66669;SDS011;53568;52.164;4.472;2022-08-14T02:23:58;10.91;;;10.91;;
66669;SDS011;53568;52.164;4.472;2022-08-14T02:26:32;11.04;;;11.04;;
66669;SDS011;53568;52.164;4.472;2022-08-14T02:29:01;11.04;;;11.04;;
66669;SDS011;53568;52.164;4.472;2022-08-14T02:31:31;11.13;;;11.13;;
66669;SDS011;53568;52.164;4.472;2022-08-14T02:34:21;11.01;;;11.01;;
66669;SDS011;53568;52.164;4.472;2022-08-14T02:36:55;12.01;;;12.01;;
66669;SDS011;53568;52.164;4.472;2022-08-14T02:39:36;12.10;;;12.10;;
66669;SDS011;53568;52.164;4.472;2022-08-14T02:42:08;12.05;;;12.05;;
66669;SDS011;53568;52.164;4.472;2022-08-14T02:44:37;12.45;;;12.45;;
66669;SDS011;53568;52.164;4.472;2022-08-14T02:47:06;12.34;;;12.34;;
66669;SDS011;53568;52.164;4.472;2022-08-14T02:49:32;12.32;;;12.32;;
66669;SDS011;53568;52.164;4.472;2022-08-14T02:51:59;12.40;;;12.40;;
66669;SDS011;53568;52.164;4.472;2022-08-14T02:54:25;12.82;;;12.82;;
66669;SDS011;53568;52.164;4.472;2022-08-14T02:56:52;13.28;;;13.28;;
66669;SDS011;53568;52.164;4.472;2022-08-14T02:59:20;12.79;;;12.79;;
66669;SDS011;53568;52.164;4.472;2022-08-14T03:01:52;12.57;;;12.57;;
66669;SDS011;53568;52.164;4.472;2022-08-14T03:04:18;12.87;;;12.87;;
66669;SDS011;53568;52.164;4.472;2022-08-14T03:06:45;13.14;;;13.14;;
66669;SDS011;53568;52.164;4.472;2022-08-14T03:09:12;14.80;;;14.80;;
66669;SDS011;53568;52.164;4.472;2022-08-14T03:11:38;18.63;;;18.63;;
66669;SDS011;53568;52.164;4.472;2022-08-14T03:14:06;23.82;;;23.81;;
66669;SDS011;53568;52.164;4.472;2022-08-14T03:16:33;23.31;;;23.31;;
66669;SDS011;53568;52.164;4.472;2022-08-14T03:19:00;20.89;;;20.82;;
66669;SDS011;53568;52.164;4.472;2022-08-14T03:21:27;18.37;;;18.37;;
66669;SDS011;53568;52.164;4.472;2022-08-14T03:23:56;17.03;;;17.03;;
66669;SDS011;53568;52.164;4.472;2022-08-14T03:26:34;16.80;;;16.80;;
66669;SDS011;53568;52.164;4.472;2022-08-14T03:29:00;16.41;;;16.41;;
66669;SDS011;53568;52.164;4.472;2022-08-14T03:31:27;16.41;;;16.41;;
66669;SDS011;53568;52.164;4.472;2022-08-14T03:33:54;16.19;;;16.19;;
66669;SDS011;53568;52.164;4.472;2022-08-14T03:36:21;16.05;;;16.05;;
66669;SDS011;53568;52.164;4.472;2022-08-14T03:38:48;15.00;;;15.00;;
66669;SDS011;53568;52.164;4.472;2022-08-14T03:41:18;14.95;;;14.95;;
66669;SDS011;53568;52.164;4.472;2022-08-14T03:43:46;14.80;;;14.80;;
66669;SDS011;53568;52.164;4.472;2022-08-14T03:46:13;14.89;;;14.89;;
66669;SDS011;53568;52.164;4.472;2022-08-14T03:48:40;14.30;;;14.30;;
66669;SDS011;53568;52.164;4.472;2022-08-14T03:51:07;14.67;;;14.67;;
66669;SDS011;53568;52.164;4.472;2022-08-14T03:53:35;13.83;;;13.83;;
66669;SDS011;53568;52.164;4.472;2022-08-14T03:56:05;14.28;;;14.28;;
66669;SDS011;53568;52.164;4.472;2022-08-14T03:58:32;14.29;;;14.29;;
66669;SDS011;53568;52.164;4.472;2022-08-14T04:00:58;14.08;;;14.08;;
66669;SDS011;53568;52.164;4.472;2022-08-14T04:03:24;13.95;;;13.95;;
66669;SDS011;53568;52.164;4.472;2022-08-14T04:05:51;14.38;;;14.38;;
66669;SDS011;53568;52.164;4.472;2022-08-14T04:08:17;14.23;;;14.23;;
66669;SDS011;53568;52.164;4.472;2022-08-14T04:10:44;14.27;;;14.27;;
66669;SDS011;53568;52.164;4.472;2022-08-14T04:13:10;13.91;;;13.91;;
66669;SDS011;53568;52.164;4.472;2022-08-14T04:15:36;14.01;;;14.01;;
66669;SDS011;53568;52.164;4.472;2022-08-14T04:18:03;13.90;;;13.90;;
66669;SDS011;53568;52.164;4.472;2022-08-14T04:20:36;14.23;;;14.23;;
66669;SDS011;53568;52.164;4.472;2022-08-14T04:23:04;13.99;;;13.99;;
66669;SDS011;53568;52.164;4.472;2022-08-14T04:25:34;14.34;;;14.34;;
66669;SDS011;53568;52.164;4.472;2022-08-14T04:28:02;14.54;;;14.54;;
66669;SDS011;53568;52.164;4.472;2022-08-14T04:30:30;14.44;;;14.44;;
66669;SDS011;53568;52.164;4.472;2022-08-14T04:33:03;14.23;;;14.23;;
66669;SDS011;53568;52.164;4.472;2022-08-14T04:35:33;14.79;;;14.79;;
66669;SDS011;53568;52.164;4.472;2022-08-14T04:38:07;14.19;;;14.19;;
66669;SDS011;53568;52.164;4.472;2022-08-14T04:40:53;14.42;;;14.42;;
66669;SDS011;53568;52.164;4.472;2022-08-14T04:43:38;13.98;;;13.98;;
66669;SDS011;53568;52.164;4.472;2022-08-14T04:46:10;14.03;;;14.03;;
66669;SDS011;53568;52.164;4.472;2022-08-14T04:48:38;14.07;;;14.07;;
66669;SDS011;53568;52.164;4.472;2022-08-14T04:51:04;13.84;;;13.84;;
66669;SDS011;53568;52.164;4.472;2022-08-14T04:53:32;14.40;;;14.40;;
66669;SDS011;53568;52.164;4.472;2022-08-14T04:55:59;14.39;;;14.39;;
66669;SDS011;53568;52.164;4.472;2022-08-14T04:58:26;14.43;;;14.43;;
66669;SDS011;53568;52.164;4.472;2022-08-14T05:00:54;14.22;;;14.22;;
66669;SDS011;53568;52.164;4.472;2022-08-14T05:03:21;14.21;;;14.21;;
66669;SDS011;53568;52.164;4.472;2022-08-14T05:05:54;14.87;;;14.87;;
66669;SDS011;53568;52.164;4.472;2022-08-14T05:08:21;14.43;;;14.43;;
66669;SDS011;53568;52.164;4.472;2022-08-14T05:10:48;14.72;;;14.72;;
66669;SDS011;53568;52.164;4.472;2022-08-14T05:13:16;14.38;;;14.38;;
66669;SDS011;53568;52.164;4.472;2022-08-14T05:15:47;14.33;;;14.33;;
66669;SDS011;53568;52.164;4.472;2022-08-14T05:18:16;14.23;;;14.23;;
66669;SDS011;53568;52.164;4.472;2022-08-14T05:20:45;14.37;;;14.37;;
66669;SDS011;53568;52.164;4.472;2022-08-14T05:23:14;14.60;;;14.60;;
66669;SDS011;53568;52.164;4.472;2022-08-14T05:25:45;14.56;;;14.56;;
66669;SDS011;53568;52.164;4.472;2022-08-14T05:28:13;14.63;;;14.63;;
66669;SDS011;53568;52.164;4.472;2022-08-14T05:30:43;14.33;;;14.33;;
66669;SDS011;53568;52.164;4.472;2022-08-14T05:33:11;14.69;;;14.69;;
66669;SDS011;53568;52.164;4.472;2022-08-14T05:35:43;14.65;;;14.65;;
66669;SDS011;53568;52.164;4.472;2022-08-14T05:38:10;14.43;;;14.43;;
66669;SDS011;53568;52.164;4.472;2022-08-14T05:40:38;14.33;;;14.33;;
66669;SDS011;53568;52.164;4.472;2022-08-14T05:43:05;14.61;;;14.61;;
66669;SDS011;53568;52.164;4.472;2022-08-14T05:45:31;14.57;;;14.57;;
66669;SDS011;53568;52.164;4.472;2022-08-14T05:47:58;14.39;;;14.39;;
66669;SDS011;53568;52.164;4.472;2022-08-14T05:50:24;14.47;;;14.47;;
66669;SDS011;53568;52.164;4.472;2022-08-14T05:52:50;13.98;;;13.98;;
66669;SDS011;53568;52.164;4.472;2022-08-14T05:55:15;14.30;;;14.30;;
66669;SDS011;53568;52.164;4.472;2022-08-14T05:57:48;14.42;;;14.42;;
66669;SDS011;53568;52.164;4.472;2022-08-14T06:00:20;14.67;;;14.67;;
66669;SDS011;53568;52.164;4.472;2022-08-14T06:02:48;14.71;;;14.71;;
66669;SDS011;53568;52.164;4.472;2022-08-14T06:05:14;15.00;;;15.00;;
66669;SDS011;53568;52.164;4.472;2022-08-14T06:07:39;14.41;;;14.41;;
66669;SDS011;53568;52.164;4.472;2022-08-14T06:10:05;14.50;;;14.50;;
66669;SDS011;53568;52.164;4.472;2022-08-14T06:12:33;14.58;;;14.58;;
66669;SDS011;53568;52.164;4.472;2022-08-14T06:14:59;14.11;;;14.11;;
66669;SDS011;53568;52.164;4.472;2022-08-14T06:17:25;14.01;;;14.01;;
66669;SDS011;53568;52.164;4.472;2022-08-14T06:19:50;14.54;;;14.54;;
66669;SDS011;53568;52.164;4.472;2022-08-14T06:22:17;14.26;;;14.26;;
66669;SDS011;53568;52.164;4.472;2022-08-14T06:24:42;14.04;;;14.04;;
66669;SDS011;53568;52.164;4.472;2022-08-14T06:27:08;14.19;;;14.19;;
66669;SDS011;53568;52.164;4.472;2022-08-14T06:29:33;14.38;;;14.38;;
66669;SDS011;53568;52.164;4.472;2022-08-14T06:32:00;13.93;;;13.93;;
66669;SDS011;53568;52.164;4.472;2022-08-14T06:34:26;13.94;;;13.94;;
66669;SDS011;53568;52.164;4.472;2022-08-14T06:36:52;13.61;;;13.61;;
66669;SDS011;53568;52.164;4.472;2022-08-14T06:39:20;13.97;;;13.97;;
66669;SDS011;53568;52.164;4.472;2022-08-14T06:41:46;13.54;;;13.54;;
66669;SDS011;53568;52.164;4.472;2022-08-14T06:44:12;13.54;;;13.54;;
66669;SDS011;53568;52.164;4.472;2022-08-14T06:46:37;13.98;;;13.98;;
66669;SDS011;53568;52.164;4.472;2022-08-14T06:49:03;14.11;;;14.11;;
66669;SDS011;53568;52.164;4.472;2022-08-14T06:51:29;13.67;;;13.67;;
66669;SDS011;53568;52.164;4.472;2022-08-14T06:53:59;13.58;;;13.58;;
66669;SDS011;53568;52.164;4.472;2022-08-14T06:56:25;13.43;;;13.43;;
66669;SDS011;53568;52.164;4.472;2022-08-14T06:58:51;13.51;;;13.51;;
66669;SDS011;53568;52.164;4.472;2022-08-14T07:01:17;13.35;;;13.35;;
66669;SDS011;53568;52.164;4.472;2022-08-14T07:04:01;13.76;;;13.76;;
66669;SDS011;53568;52.164;4.472;2022-08-14T07:06:46;14.20;;;14.20;;
66669;SDS011;53568;52.164;4.472;2022-08-14T07:09:12;14.02;;;14.02;;
66669;SDS011;53568;52.164;4.472;2022-08-14T07:11:37;15.55;;;15.55;;
66669;SDS011;53568;52.164;4.472;2022-08-14T07:14:03;17.17;;;17.17;;
66669;SDS011;53568;52.164;4.472;2022-08-14T07:16:29;20.94;;;20.94;;
66669;SDS011;53568;52.164;4.472;2022-08-14T07:18:55;23.81;;;23.81;;
66669;SDS011;53568;52.164;4.472;2022-08-14T07:21:21;20.48;;;20.48;;
66669;SDS011;53568;52.164;4.472;2022-08-14T07:23:46;20.03;;;20.03;;
66669;SDS011;53568;52.164;4.472;2022-08-14T07:26:12;21.50;;;21.50;;
66669;SDS011;53568;52.164;4.472;2022-08-14T07:28:39;24.57;;;24.57;;
66669;SDS011;53568;52.164;4.472;2022-08-14T07:31:06;23.76;;;23.76;;
66669;SDS011;53568;52.164;4.472;2022-08-14T07:33:46;23.02;;;23.02;;
66669;SDS011;53568;52.164;4.472;2022-08-14T07:36:13;21.70;;;21.70;;
66669;SDS011;53568;52.164;4.472;2022-08-14T07:38:40;22.92;;;22.91;;
66669;SDS011;53568;52.164;4.472;2022-08-14T07:41:08;32.48;;;32.41;;
66669;SDS011;53568;52.164;4.472;2022-08-14T07:43:37;35.55;;;35.55;;
66669;SDS011;53568;52.164;4.472;2022-08-14T07:46:03;30.15;;;30.15;;
66669;SDS011;53568;52.164;4.472;2022-08-14T07:48:29;18.96;;;18.96;;
66669;SDS011;53568;52.164;4.472;2022-08-14T07:50:55;19.88;;;19.88;;
66669;SDS011;53568;52.164;4.472;2022-08-14T07:53:21;21.98;;;21.98;;
66669;SDS011;53568;52.164;4.472;2022-08-14T07:55:47;23.00;;;23.00;;
66669;SDS011;53568;52.164;4.472;2022-08-14T07:58:14;25.95;;;25.95;;
66669;SDS011;53568;52.164;4.472;2022-08-14T08:00:41;30.94;;;30.94;;
66669;SDS011;53568;52.164;4.472;2022-08-14T08:03:08;26.26;;;26.26;;
66669;SDS011;53568;52.164;4.472;2022-08-14T08:05:35;26.45;;;26.45;;
66669;SDS011;53568;52.164;4.472;2022-08-14T08:08:04;19.23;;;19.23;;
66669;SDS011;53568;52.164;4.472;2022-08-14T08:10:32;25.50;;;25.49;;
66669;SDS011;53568;52.164;4.472;2022-08-14T08:13:00;31.44;;;31.32;;
66669;SDS011;53568;52.164;4.472;2022-08-14T08:15:39;32.43;;;32.43;;
66669;SDS011;53568;52.164;4.472;2022-08-14T08:18:08;23.05;;;23.05;;
66669;SDS011;53568;52.164;4.472;2022-08-14T08:20:37;24.27;;;24.27;;
66669;SDS011;53568;52.164;4.472;2022-08-14T08:23:06;25.71;;;25.71;;
66669;SDS011;53568;52.164;4.472;2022-08-14T08:25:38;18.86;;;18.86;;
66669;SDS011;53568;52.164;4.472;2022-08-14T08:28:14;19.64;;;19.64;;
66669;SDS011;53568;52.164;4.472;2022-08-14T08:30:41;18.26;;;18.26;;
66669;SDS011;53568;52.164;4.472;2022-08-14T08:33:11;17.50;;;17.50;;
66669;SDS011;53568;52.164;4.472;2022-08-14T08:35:39;23.19;;;23.19;;
66669;SDS011;53568;52.164;4.472;2022-08-14T08:38:05;28.55;;;28.54;;
66669;SDS011;53568;52.164;4.472;2022-08-14T08:40:55;26.85;;;26.85;;
66669;SDS011;53568;52.164;4.472;2022-08-14T08:43:24;14.91;;;14.91;;
66669;SDS011;53568;52.164;4.472;2022-08-14T08:46:01;13.43;;;13.43;;
66669;SDS011;53568;52.164;4.472;2022-08-14T08:48:28;12.93;;;12.93;;
66669;SDS011;53568;52.164;4.472;2022-08-14T08:51:00;12.88;;;12.88;;
66669;SDS011;53568;52.164;4.472;2022-08-14T08:53:34;12.44;;;12.44;;
66669;SDS011;53568;52.164;4.472;2022-08-14T08:56:00;12.78;;;12.78;;
66669;SDS011;53568;52.164;4.472;2022-08-14T08:58:27;12.72;;;12.72;;
66669;SDS011;53568;52.164;4.472;2022-08-14T09:00:55;12.68;;;12.68;;
66669;SDS011;53568;52.164;4.472;2022-08-14T09:03:24;12.12;;;12.12;;
66669;SDS011;53568;52.164;4.472;2022-08-14T09:05:59;11.85;;;11.85;;
66669;SDS011;53568;52.164;4.472;2022-08-14T09:08:29;11.11;;;11.11;;
66669;SDS011;53568;52.164;4.472;2022-08-14T09:10:56;11.73;;;11.73;;
66669;SDS011;53568;52.164;4.472;2022-08-14T09:13:23;12.38;;;12.38;;
66669;SDS011;53568;52.164;4.472;2022-08-14T09:15:51;11.27;;;11.27;;
66669;SDS011;53568;52.164;4.472;2022-08-14T09:18:19;11.55;;;11.55;;
66669;SDS011;53568;52.164;4.472;2022-08-14T09:20:47;12.05;;;12.05;;
66669;SDS011;53568;52.164;4.472;2022-08-14T09:23:15;11.44;;;11.44;;
66669;SDS011;53568;52.164;4.472;2022-08-14T09:25:42;10.90;;;10.90;;
66669;SDS011;53568;52.164;4.472;2022-08-14T09:28:10;10.70;;;10.70;;
66669;SDS011;53568;52.164;4.472;2022-08-14T09:30:38;11.96;;;11.96;;
66669;SDS011;53568;52.164;4.472;2022-08-14T09:33:14;11.60;;;11.60;;
66669;SDS011;53568;52.164;4.472;2022-08-14T09:47:04;11.30;;;11.30;;
66669;SDS011;53568;52.164;4.472;2022-08-14T09:49:30;11.73;;;11.73;;
66669;SDS011;53568;52.164;4.472;2022-08-14T09:54:38;11.39;;;11.39;;
66669;SDS011;53568;52.164;4.472;2022-08-14T09:57:07;10.60;;;10.60;;
66669;SDS011;53568;52.164;4.472;2022-08-14T09:59:47;10.85;;;10.85;;
66669;SDS011;53568;52.164;4.472;2022-08-14T10:02:20;11.24;;;11.24;;
66669;SDS011;53568;52.164;4.472;2022-08-14T10:05:02;11.27;;;11.27;;
66669;SDS011;53568;52.164;4.472;2022-08-14T10:07:35;11.75;;;11.75;;
66669;SDS011;53568;52.164;4.472;2022-08-14T10:13:02;10.17;;;10.17;;
66669;SDS011;53568;52.164;4.472;2022-08-14T10:15:30;10.96;;;10.96;;
66669;SDS011;53568;52.164;4.472;2022-08-14T10:18:25;10.89;;;10.89;;
66669;SDS011;53568;52.164;4.472;2022-08-14T10:20:58;11.86;;;11.86;;
66669;SDS011;53568;52.164;4.472;2022-08-14T10:23:41;11.27;;;11.27;;
66669;SDS011;53568;52.164;4.472;2022-08-14T10:26:12;10.59;;;10.59;;
66669;SDS011;53568;52.164;4.472;2022-08-14T10:28:43;11.09;;;11.09;;
66669;SDS011;53568;52.164;4.472;2022-08-14T10:31:22;10.49;;;10.49;;
66669;SDS011;53568;52.164;4.472;2022-08-14T10:36:45;10.08;;;10.08;;
66669;SDS011;53568;52.164;4.472;2022-08-14T10:39:18;13.21;;;13.21;;
66669;SDS011;53568;52.164;4.472;2022-08-14T10:41:58;14.58;;;14.58;;
66669;SDS011;53568;52.164;4.472;2022-08-14T10:44:37;15.26;;;15.26;;
66669;SDS011;53568;52.164;4.472;2022-08-14T10:47:11;11.45;;;11.45;;
66669;SDS011;53568;52.164;4.472;2022-08-14T10:49:43;14.88;;;14.88;;
66669;SDS011;53568;52.164;4.472;2022-08-14T10:52:22;12.84;;;12.84;;
66669;SDS011;53568;52.164;4.472;2022-08-14T10:55:03;26.11;;;26.11;;
66669;SDS011;53568;52.164;4.472;2022-08-14T10:57:46;25.32;;;25.32;;
66669;SDS011;53568;52.164;4.472;2022-08-14T11:00:22;24.52;;;24.52;;
66669;SDS011;53568;52.164;4.472;2022-08-14T11:02:57;21.71;;;21.71;;
66669;SDS011;53568;52.164;4.472;2022-08-14T11:08:14;11.90;;;11.90;;
66669;SDS011;53568;52.164;4.472;2022-08-14T11:10:53;13.50;;;13.50;;
66669;SDS011;53568;52.164;4.472;2022-08-14T11:13:22;9.21;;;9.21;;
66669;SDS011;53568;52.164;4.472;2022-08-14T11:15:51;13.50;;;13.50;;
66669;SDS011;53568;52.164;4.472;2022-08-14T11:18:24;18.21;;;18.21;;
66669;SDS011;53568;52.164;4.472;2022-08-14T11:20:55;20.87;;;20.87;;
66669;SDS011;53568;52.164;4.472;2022-08-14T11:23:28;15.25;;;15.25;;
66669;SDS011;53568;52.164;4.472;2022-08-14T11:25:56;9.81;;;9.81;;
66669;SDS011;53568;52.164;4.472;2022-08-14T11:28:27;10.93;;;10.93;;
66669;SDS011;53568;52.164;4.472;2022-08-14T11:30:57;10.16;;;10.16;;
66669;SDS011;53568;52.164;4.472;2022-08-14T11:33:26;8.92;;;8.92;;
66669;SDS011;53568;52.164;4.472;2022-08-14T11:35:55;7.93;;;7.93;;
66669;SDS011;53568;52.164;4.472;2022-08-14T11:38:26;9.43;;;9.43;;
66669;SDS011;53568;52.164;4.472;2022-08-14T11:40:53;8.78;;;8.78;;
66669;SDS011;53568;52.164;4.472;2022-08-14T11:43:22;9.01;;;9.01;;
66669;SDS011;53568;52.164;4.472;2022-08-14T11:45:49;8.89;;;8.89;;
66669;SDS011;53568;52.164;4.472;2022-08-14T11:48:19;8.71;;;8.71;;
66669;SDS011;53568;52.164;4.472;2022-08-14T11:50:47;9.87;;;9.87;;
66669;SDS011;53568;52.164;4.472;2022-08-14T11:53:20;9.58;;;9.58;;
66669;SDS011;53568;52.164;4.472;2022-08-14T11:55:47;7.85;;;7.85;;
66669;SDS011;53568;52.164;4.472;2022-08-14T11:58:23;7.98;;;7.98;;
66669;SDS011;53568;52.164;4.472;2022-08-14T12:00:52;8.08;;;8.08;;
66669;SDS011;53568;52.164;4.472;2022-08-14T12:03:48;8.24;;;8.24;;
66669;SDS011;53568;52.164;4.472;2022-08-14T12:06:15;7.67;;;7.67;;
66669;SDS011;53568;52.164;4.472;2022-08-14T12:08:43;11.57;;;11.57;;
66669;SDS011;53568;52.164;4.472;2022-08-14T12:11:14;7.44;;;7.44;;
66669;SDS011;53568;52.164;4.472;2022-08-14T12:13:41;7.74;;;7.74;;
66669;SDS011;53568;52.164;4.472;2022-08-14T12:16:08;10.23;;;10.23;;
66669;SDS011;53568;52.164;4.472;2022-08-14T12:18:37;8.96;;;8.96;;
66669;SDS011;53568;52.164;4.472;2022-08-14T12:23:42;6.16;;;6.16;;
66669;SDS011;53568;52.164;4.472;2022-08-14T12:26:09;5.90;;;5.90;;
66669;SDS011;53568;52.164;4.472;2022-08-14T12:28:41;5.88;;;5.88;;
66669;SDS011;53568;52.164;4.472;2022-08-14T12:31:10;5.93;;;5.93;;
66669;SDS011;53568;52.164;4.472;2022-08-14T12:33:37;5.83;;;5.83;;
66669;SDS011;53568;52.164;4.472;2022-08-14T12:36:06;5.92;;;5.92;;
66669;SDS011;53568;52.164;4.472;2022-08-14T12:38:35;6.25;;;6.25;;
66669;SDS011;53568;52.164;4.472;2022-08-14T12:44:03;7.22;;;7.22;;
66669;SDS011;53568;52.164;4.472;2022-08-14T12:46:40;5.67;;;5.67;;
66669;SDS011;53568;52.164;4.472;2022-08-14T12:49:10;5.88;;;5.88;;
66669;SDS011;53568;52.164;4.472;2022-08-14T12:51:40;5.40;;;5.40;;
66669;SDS011;53568;52.164;4.472;2022-08-14T12:54:13;5.65;;;5.65;;
66669;SDS011;53568;52.164;4.472;2022-08-14T12:56:40;5.60;;;5.60;;
66669;SDS011;53568;52.164;4.472;2022-08-14T12:59:06;5.67;;;5.67;;
66669;SDS011;53568;52.164;4.472;2022-08-14T13:01:32;6.60;;;6.60;;
66669;SDS011;53568;52.164;4.472;2022-08-14T13:04:04;18.34;;;18.34;;
66669;SDS011;53568;52.164;4.472;2022-08-14T13:06:33;21.61;;;21.56;;
66669;SDS011;53568;52.164;4.472;2022-08-14T13:09:00;24.77;;;24.76;;
66669;SDS011;53568;52.164;4.472;2022-08-14T13:11:30;20.78;;;20.78;;
66669;SDS011;53568;52.164;4.472;2022-08-14T13:14:02;19.08;;;19.08;;
66669;SDS011;53568;52.164;4.472;2022-08-14T13:16:28;11.34;;;11.34;;
66669;SDS011;53568;52.164;4.472;2022-08-14T13:18:55;14.29;;;14.29;;
66669;SDS011;53568;52.164;4.472;2022-08-14T13:21:25;13.19;;;13.19;;
66669;SDS011;53568;52.164;4.472;2022-08-14T13:23:54;18.10;;;18.10;;
66669;SDS011;53568;52.164;4.472;2022-08-14T13:26:23;27.47;;;27.47;;
66669;SDS011;53568;52.164;4.472;2022-08-14T13:28:51;14.97;;;14.97;;
66669;SDS011;53568;52.164;4.472;2022-08-14T13:31:19;5.95;;;5.95;;
66669;SDS011;53568;52.164;4.472;2022-08-14T13:33:48;18.37;;;18.37;;
66669;SDS011;53568;52.164;4.472;2022-08-14T13:36:15;15.99;;;15.99;;
66669;SDS011;53568;52.164;4.472;2022-08-14T13:38:41;16.43;;;16.43;;
66669;SDS011;53568;52.164;4.472;2022-08-14T13:41:09;14.86;;;14.86;;
66669;SDS011;53568;52.164;4.472;2022-08-14T13:43:35;19.39;;;19.39;;
66669;SDS011;53568;52.164;4.472;2022-08-14T13:46:04;19.65;;;19.65;;
66669;SDS011;53568;52.164;4.472;2022-08-14T13:48:31;23.04;;;23.03;;
66669;SDS011;53568;52.164;4.472;2022-08-14T13:50:57;28.83;;;28.83;;
66669;SDS011;53568;52.164;4.472;2022-08-14T13:53:24;21.35;;;21.35;;
66669;SDS011;53568;52.164;4.472;2022-08-14T13:55:52;17.26;;;17.26;;
66669;SDS011;53568;52.164;4.472;2022-08-14T13:58:20;14.22;;;14.22;;
66669;SDS011;53568;52.164;4.472;2022-08-14T14:00:49;9.48;;;9.48;;
66669;SDS011;53568;52.164;4.472;2022-08-14T14:03:21;10.81;;;10.81;;
66669;SDS011;53568;52.164;4.472;2022-08-14T14:05:49;13.21;;;13.21;;
66669;SDS011;53568;52.164;4.472;2022-08-14T14:08:16;17.50;;;17.50;;
66669;SDS011;53568;52.164;4.472;2022-08-14T14:10:45;32.90;;;32.90;;
66669;SDS011;53568;52.164;4.472;2022-08-14T14:13:14;29.68;;;29.68;;
66669;SDS011;53568;52.164;4.472;2022-08-14T14:15:44;7.49;;;7.49;;
66669;SDS011;53568;52.164;4.472;2022-08-14T14:18:12;8.98;;;8.98;;
66669;SDS011;53568;52.164;4.472;2022-08-14T14:20:43;19.82;;;19.82;;
66669;SDS011;53568;52.164;4.472;2022-08-14T14:23:11;15.56;;;15.56;;
66669;SDS011;53568;52.164;4.472;2022-08-14T14:25:44;14.44;;;14.44;;
66669;SDS011;53568;52.164;4.472;2022-08-14T14:28:14;15.01;;;15.01;;
66669;SDS011;53568;52.164;4.472;2022-08-14T14:30:45;12.30;;;12.30;;
66669;SDS011;53568;52.164;4.472;2022-08-14T14:33:11;11.80;;;11.80;;
66669;SDS011;53568;52.164;4.472;2022-08-14T14:35:44;7.85;;;7.85;;
66669;SDS011;53568;52.164;4.472;2022-08-14T14:38:14;11.95;;;11.95;;
66669;SDS011;53568;52.164;4.472;2022-08-14T14:40:42;10.51;;;10.51;;
66669;SDS011;53568;52.164;4.472;2022-08-14T14:43:10;12.14;;;12.14;;
66669;SDS011;53568;52.164;4.472;2022-08-14T14:45:38;10.53;;;10.53;;
66669;SDS011;53568;52.164;4.472;2022-08-14T14:48:07;11.80;;;11.80;;
66669;SDS011;53568;52.164;4.472;2022-08-14T14:50:33;27.31;;;27.30;;
66669;SDS011;53568;52.164;4.472;2022-08-14T14:53:02;26.82;;;26.82;;
66669;SDS011;53568;52.164;4.472;2022-08-14T14:55:29;14.02;;;14.02;;
66669;SDS011;53568;52.164;4.472;2022-08-14T14:57:57;6.81;;;6.81;;
66669;SDS011;53568;52.164;4.472;2022-08-14T15:00:27;15.78;;;15.78;;
66669;SDS011;53568;52.164;4.472;2022-08-14T15:02:53;14.20;;;14.20;;
66669;SDS011;53568;52.164;4.472;2022-08-14T15:05:19;16.40;;;16.40;;
66669;SDS011;53568;52.164;4.472;2022-08-14T15:07:47;16.63;;;16.63;;